createdAt,value
2023-05-08T00:02:16.995Z,54.68
2023-05-08T00:04:45.165Z,54.89
2023-05-08T00:07:13.140Z,54.88
2023-05-08T00:09:41.058Z,54.79
2023-05-08T00:12:08.931Z,54.96
2023-05-08T00:14:38.246Z,54.81
2023-05-08T00:17:06.289Z,54.98
2023-05-08T00:19:34.443Z,54.98
2023-05-08T00:22:02.375Z,55.14
2023-05-08T00:24:30.475Z,55.06
2023-05-08T00:26:58.337Z,55.13
2023-05-08T00:29:26.347Z,55.15
2023-05-08T00:31:55.707Z,55.15
2023-05-08T00:34:23.773Z,55.23
2023-05-08T00:36:51.675Z,55.17
2023-05-08T00:39:19.823Z,55.51
2023-05-08T00:41:47.805Z,55.48
2023-05-08T00:44:15.850Z,55.35
2023-05-08T00:46:43.913Z,55.28
2023-05-08T00:49:14.593Z,55.28
2023-05-08T00:51:43.365Z,55.33
2023-05-08T00:54:11.280Z,55.34
2023-05-08T00:56:39.299Z,55.12
2023-05-08T00:59:09.635Z,55.31
2023-05-08T01:01:38.432Z,55.09
2023-05-08T01:04:06.667Z,55.18
2023-05-08T01:06:36.925Z,55.23
2023-05-08T01:09:05.011Z,55.26
2023-05-08T01:11:35.173Z,55.44
2023-05-08T01:14:09.101Z,55.41
2023-05-08T01:16:40.190Z,55.41
2023-05-08T01:19:19.109Z,55.33
2023-05-08T01:21:51.618Z,55.25
2023-05-08T01:24:51.758Z,55.26
2023-05-08T01:27:40.989Z,55.41
2023-05-08T01:30:38.954Z,55.45
2023-05-08T01:33:10.543Z,55.45
2023-05-08T01:35:43.097Z,55.48
2023-05-08T01:38:12.695Z,55.49
2023-05-08T01:40:44.966Z,55.70
2023-05-08T01:43:16.660Z,55.67
2023-05-08T01:45:46.817Z,55.93
2023-05-08T01:48:19.021Z,56.02
2023-05-08T01:50:48.190Z,56.01
2023-05-08T01:53:22.445Z,56.26
2023-05-08T01:55:52.104Z,56.24
2023-05-08T01:58:20.625Z,56.41
2023-05-08T02:00:48.585Z,56.46
2023-05-08T02:03:17.940Z,56.74
2023-05-08T02:05:45.978Z,56.79
2023-05-08T02:08:15.237Z,56.92
2023-05-08T02:10:43.559Z,57.04
2023-05-08T02:13:11.565Z,57.31
2023-05-08T02:15:39.970Z,57.45
2023-05-08T02:18:09.008Z,57.59
2023-05-08T02:20:38.517Z,57.71
2023-05-08T02:23:06.492Z,58.03
2023-05-08T02:25:34.502Z,58.13
2023-05-08T02:28:02.507Z,58.32
2023-05-08T02:30:30.389Z,58.26
2023-05-08T02:33:00.400Z,58.34
2023-05-08T02:35:28.840Z,58.18
2023-05-08T02:37:58.312Z,58.23
2023-05-08T02:40:27.530Z,58.52
2023-05-08T02:42:55.726Z,58.69
2023-05-08T02:45:24.578Z,58.68
2023-05-08T02:47:55.564Z,58.83
2023-05-08T02:50:25.680Z,58.81
2023-05-08T02:52:54.621Z,59.02
2023-05-08T02:55:34.315Z,58.96
2023-05-08T02:58:07.368Z,59.07
2023-05-08T03:00:38.928Z,59.13
2023-05-08T03:03:10.164Z,59.40
2023-05-08T03:05:38.576Z,59.41
2023-05-08T03:08:08.672Z,59.74
2023-05-08T03:10:38.651Z,59.77
2023-05-08T03:13:09.187Z,59.92
2023-05-08T03:15:38.785Z,59.99
2023-05-08T03:18:09.024Z,60.08
2023-05-08T03:20:39.093Z,60.19
2023-05-08T03:23:07.446Z,60.06
2023-05-08T03:25:35.478Z,60.26
2023-05-08T03:28:05.476Z,60.49
2023-05-08T03:30:33.819Z,60.63
2023-05-08T03:33:07.959Z,60.62
2023-05-08T03:35:36.670Z,60.60
2023-05-08T03:38:06.754Z,60.92
2023-05-08T03:40:38.686Z,61.01
2023-05-08T03:43:08.628Z,61.21
2023-05-08T03:45:37.618Z,61.33
2023-05-08T03:48:06.260Z,61.36
2023-05-08T03:50:36.253Z,61.63
2023-05-08T03:53:05.237Z,61.72
2023-05-08T03:55:34.009Z,61.57
2023-05-08T03:58:09.674Z,61.77
2023-05-08T04:00:43.507Z,61.64
2023-05-08T04:03:22.873Z,61.72
2023-05-08T04:05:53.330Z,61.80
2023-05-08T04:08:22.740Z,61.65
2023-05-08T04:10:52.173Z,61.75
2023-05-08T04:13:24.042Z,61.63
2023-05-08T04:15:56.422Z,62.19
2023-05-08T04:18:29.275Z,62.02
2023-05-08T04:20:59.680Z,62.14
2023-05-08T04:23:27.744Z,62.24
2023-05-08T04:25:56.662Z,62.10
2023-05-08T04:28:26.400Z,62.10
2023-05-08T04:30:55.004Z,62.35
2023-05-08T04:33:23.552Z,62.07
2023-05-08T04:35:52.545Z,62.21
2023-05-08T04:38:20.474Z,62.31
2023-05-08T04:40:48.772Z,62.02
2023-05-08T04:43:16.718Z,62.10
2023-05-08T04:45:46.210Z,62.07
2023-05-08T04:48:14.766Z,62.01
2023-05-08T04:50:42.681Z,62.04
2023-05-08T04:53:10.744Z,62.06
2023-05-08T04:55:38.632Z,62.38
2023-05-08T04:58:06.628Z,62.27
2023-05-08T05:00:35.389Z,62.37
2023-05-08T05:03:05.365Z,62.50
2023-05-08T05:05:33.575Z,62.28
2023-05-08T05:08:01.549Z,62.48
2023-05-08T05:10:29.541Z,62.63
2023-05-08T05:12:57.570Z,62.34
2023-05-08T05:15:26.176Z,62.58
2023-05-08T05:17:54.344Z,62.53
2023-05-08T05:20:23.815Z,62.28
2023-05-08T05:22:51.854Z,62.51
2023-05-08T05:25:19.967Z,62.18
2023-05-08T05:27:47.936Z,62.41
2023-05-08T05:30:16.435Z,62.33
2023-05-08T05:32:45.041Z,62.52
2023-05-08T05:35:13.515Z,62.49
2023-05-08T05:37:43.393Z,62.39
2023-05-08T05:40:13.297Z,62.39
2023-05-08T05:42:42.000Z,62.54
2023-05-08T05:45:11.517Z,62.47
2023-05-08T05:47:40.290Z,62.37
2023-05-08T05:50:08.778Z,62.56
2023-05-08T05:52:37.047Z,62.21
2023-05-08T05:55:07.169Z,62.52
2023-05-08T05:57:35.346Z,62.74
2023-05-08T06:00:03.707Z,62.75
2023-05-08T06:02:42.832Z,63.01
2023-05-08T06:05:14.403Z,63.11
2023-05-08T06:07:42.656Z,62.95
2023-05-08T06:10:12.296Z,63.03
2023-05-08T06:12:40.621Z,62.88
2023-05-08T06:15:09.973Z,62.90
2023-05-08T06:17:38.482Z,62.69
2023-05-08T06:20:09.918Z,62.94
2023-05-08T06:22:39.392Z,62.88
2023-05-08T06:25:08.416Z,62.91
2023-05-08T06:27:37.770Z,62.71
2023-05-08T06:30:08.293Z,62.74
2023-05-08T06:32:36.306Z,62.65
2023-05-08T06:35:04.267Z,62.89
2023-05-08T06:37:32.235Z,63.08
2023-05-08T06:40:10.982Z,63.19
2023-05-08T06:42:41.786Z,63.09
2023-05-08T06:45:10.419Z,63.05
2023-05-08T06:47:38.856Z,63.14
2023-05-08T06:50:07.854Z,63.44
2023-05-08T06:52:35.910Z,63.46
2023-05-08T06:55:03.817Z,63.72
2023-05-08T06:57:31.798Z,63.57
2023-05-08T07:00:01.093Z,63.65
2023-05-08T07:02:29.047Z,63.48
2023-05-08T07:04:57.030Z,63.71
2023-05-08T07:07:25.533Z,63.94
2023-05-08T07:09:53.427Z,64.08
2023-05-08T07:12:21.350Z,63.98
2023-05-08T07:14:49.241Z,63.99
2023-05-08T07:17:18.678Z,63.96
2023-05-08T07:19:46.552Z,63.82
2023-05-08T07:22:14.591Z,64.06
2023-05-08T07:24:42.537Z,64.10
2023-05-08T07:27:10.453Z,63.91
2023-05-08T07:29:38.408Z,63.98
2023-05-08T07:32:08.484Z,64.12
2023-05-08T07:34:37.842Z,64.05
2023-05-08T07:37:05.781Z,63.95
2023-05-08T07:39:33.745Z,63.78
2023-05-08T07:42:01.792Z,63.93
2023-05-08T07:44:31.676Z,63.91
2023-05-08T07:47:03.819Z,63.84
2023-05-08T07:49:31.742Z,63.81
2023-05-08T07:52:01.019Z,64.05
2023-05-08T07:54:28.932Z,63.86
2023-05-08T07:56:56.875Z,63.98
2023-05-08T07:59:24.788Z,64.12
2023-05-08T08:01:52.978Z,64.02
2023-05-08T08:04:21.274Z,63.91
2023-05-08T08:06:49.266Z,64.18
2023-05-08T08:09:18.542Z,64.00
2023-05-08T08:11:46.622Z,64.29
2023-05-08T08:14:14.542Z,64.07
2023-05-08T08:16:42.615Z,63.91
2023-05-08T08:19:10.735Z,64.08
2023-05-08T08:21:43.378Z,64.12
2023-05-08T08:24:11.480Z,64.21
2023-05-08T08:26:40.757Z,64.22
2023-05-08T08:29:08.896Z,64.12
2023-05-08T08:31:36.852Z,64.03
2023-05-08T08:34:04.992Z,64.05
2023-05-08T08:36:33.621Z,64.09
2023-05-08T08:39:01.859Z,64.09
2023-05-08T08:41:29.920Z,64.15
2023-05-08T08:44:01.999Z,63.99
2023-05-08T08:46:30.318Z,64.01
2023-05-08T08:48:58.305Z,63.85
2023-05-08T08:51:28.477Z,63.88
2023-05-08T08:54:03.645Z,64.05
2023-05-08T08:56:31.984Z,64.10
2023-05-08T08:59:01.467Z,63.95
2023-05-08T09:01:30.045Z,63.89
2023-05-08T09:03:59.445Z,63.99
2023-05-08T09:06:28.828Z,63.97
2023-05-08T09:08:58.041Z,63.83
2023-05-08T09:11:26.097Z,63.76
2023-05-08T09:13:54.030Z,63.84
2023-05-08T09:16:23.595Z,63.77
2023-05-08T09:18:51.836Z,63.92
2023-05-08T09:21:19.805Z,63.96
2023-05-08T09:24:05.970Z,63.76
2023-05-08T09:26:34.738Z,63.61
2023-05-08T09:29:15.467Z,63.67
2023-05-08T09:31:45.778Z,63.77
2023-05-08T09:34:23.863Z,63.52
2023-05-08T09:36:51.878Z,63.60
2023-05-08T09:39:23.333Z,63.52
2023-05-08T09:41:58.234Z,63.48
2023-05-08T09:44:26.190Z,63.62
2023-05-08T09:47:10.393Z,63.45
2023-05-08T09:49:39.887Z,63.55
2023-05-08T09:52:08.460Z,63.41
2023-05-08T09:54:37.536Z,63.67
2023-05-08T09:57:13.249Z,63.77
2023-05-08T09:59:42.655Z,63.80
2023-05-08T10:02:16.351Z,63.89
2023-05-08T10:04:44.850Z,63.93
2023-05-08T10:07:12.841Z,63.77
2023-05-08T10:09:50.453Z,63.99
2023-05-08T10:12:19.341Z,64.19
2023-05-08T10:14:47.431Z,64.22
2023-05-08T10:17:16.897Z,64.21
2023-05-08T10:19:45.999Z,64.46
2023-05-08T10:22:14.042Z,64.54
2023-05-08T10:24:42.690Z,64.41
2023-05-08T10:27:13.576Z,64.49
2023-05-08T10:29:43.783Z,64.44
2023-05-08T10:32:11.792Z,64.59
2023-05-08T10:34:42.192Z,64.60
2023-05-08T10:37:10.771Z,64.68
2023-05-08T10:39:38.788Z,64.80
2023-05-08T10:42:06.927Z,64.65
2023-05-08T10:44:34.942Z,64.72
2023-05-08T10:47:05.542Z,64.56
2023-05-08T10:49:36.286Z,64.38
2023-05-08T10:52:18.019Z,64.02
2023-05-08T10:55:10.963Z,64.03
2023-05-08T10:57:38.956Z,63.66
2023-05-08T11:00:08.619Z,63.68
2023-05-08T11:02:38.483Z,64.11
2023-05-08T11:05:16.420Z,63.75
2023-05-08T11:07:56.180Z,63.68
2023-05-08T11:10:24.275Z,63.58
2023-05-08T11:12:52.221Z,63.89
2023-05-08T11:15:24.747Z,63.72
2023-05-08T11:17:55.442Z,63.64
2023-05-08T11:20:24.609Z,63.54
2023-05-08T11:22:52.690Z,63.68
2023-05-08T11:25:22.511Z,63.87
2023-05-08T11:28:14.012Z,63.41
2023-05-08T11:30:42.202Z,63.89
2023-05-08T11:33:16.728Z,63.76
2023-05-08T11:35:50.033Z,63.75
2023-05-08T11:38:28.147Z,64.00
2023-05-08T11:40:59.290Z,64.58
2023-05-08T11:43:28.448Z,64.72
2023-05-08T11:45:56.422Z,64.77
2023-05-08T11:48:24.357Z,64.74
2023-05-08T11:50:52.434Z,64.66
2023-05-08T11:53:20.468Z,64.74
2023-05-08T11:55:49.257Z,64.84
2023-05-08T11:58:18.552Z,65.00
2023-05-08T12:00:47.424Z,64.86
2023-05-08T12:03:15.867Z,65.10
2023-05-08T12:05:44.116Z,65.46
2023-05-08T12:08:12.855Z,65.53
2023-05-08T12:10:41.624Z,65.57
2023-05-08T12:13:29.443Z,65.61
2023-05-08T12:15:58.314Z,66.15
2023-05-08T12:18:27.696Z,65.96
2023-05-08T12:20:58.381Z,66.33
2023-05-08T12:23:26.690Z,66.30
2023-05-08T12:25:55.511Z,66.46
2023-05-08T12:28:24.004Z,66.39
2023-05-08T12:30:53.823Z,66.39
2023-05-08T12:33:22.111Z,66.47
2023-05-08T12:35:50.286Z,66.43
2023-05-08T12:38:18.581Z,66.73
2023-05-08T12:40:49.119Z,66.81
2023-05-08T12:43:17.343Z,67.00
2023-05-08T12:45:45.438Z,67.22
2023-05-08T12:48:15.773Z,67.47
2023-05-08T12:50:47.245Z,67.54
2023-05-08T12:53:16.638Z,67.97
2023-05-08T12:55:52.770Z,68.38
2023-05-08T12:58:20.907Z,68.38
2023-05-08T13:00:49.780Z,68.55
2023-05-08T13:03:25.721Z,68.81
2023-05-08T13:05:54.364Z,68.81
2023-05-08T13:08:22.339Z,68.78
2023-05-08T13:10:50.974Z,68.84
2023-05-08T13:13:19.798Z,68.97
2023-05-08T13:15:48.148Z,68.87
2023-05-08T13:18:17.032Z,69.00
2023-05-08T13:20:46.589Z,69.05
2023-05-08T13:23:14.628Z,69.21
2023-05-08T13:25:42.767Z,68.98
2023-05-08T13:28:12.048Z,69.09
2023-05-08T13:30:40.148Z,69.39
2023-05-08T13:33:08.247Z,69.81
2023-05-08T13:35:36.231Z,69.63
2023-05-08T13:38:06.151Z,69.69
2023-05-08T13:40:34.406Z,69.68
2023-05-08T13:43:02.394Z,69.83
2023-05-08T13:45:30.797Z,69.57
2023-05-08T13:48:00.409Z,69.55
2023-05-08T13:50:28.876Z,69.59
2023-05-08T13:52:56.809Z,69.71
2023-05-08T13:55:26.325Z,69.65
2023-05-08T13:57:54.429Z,69.48
2023-05-08T14:00:22.503Z,69.89
2023-05-08T14:02:53.024Z,70.06
2023-05-08T14:05:21.576Z,69.86
2023-05-08T14:07:49.478Z,69.83
2023-05-08T14:10:18.109Z,69.89
2023-05-08T14:12:47.418Z,69.81
2023-05-08T14:15:18.259Z,69.76
2023-05-08T14:17:46.272Z,69.69
2023-05-08T14:20:14.235Z,69.56
2023-05-08T14:22:42.232Z,69.73
2023-05-08T14:25:11.111Z,69.66
2023-05-08T14:27:39.523Z,69.78
2023-05-08T14:30:11.988Z,69.66
2023-05-08T14:32:46.007Z,69.75
2023-05-08T14:35:15.118Z,69.79
2023-05-08T14:37:46.544Z,69.67
2023-05-08T14:40:15.118Z,69.73
2023-05-08T14:42:43.495Z,69.65
2023-05-08T14:45:13.683Z,69.69
2023-05-08T14:47:42.179Z,69.42
2023-05-08T14:50:11.029Z,69.69
2023-05-08T14:52:39.186Z,69.44
2023-05-08T14:55:08.578Z,69.40
2023-05-08T14:57:37.136Z,69.50
2023-05-08T15:00:06.149Z,69.44
2023-05-08T15:02:38.418Z,69.14
2023-05-08T15:05:10.945Z,69.28
2023-05-08T15:07:45.407Z,69.36
2023-05-08T15:10:13.686Z,69.40
2023-05-08T15:12:41.822Z,69.45
2023-05-08T15:15:10.105Z,69.51
2023-05-08T15:17:41.543Z,69.56
2023-05-08T15:20:10.435Z,69.67
2023-05-08T15:22:38.380Z,69.81
2023-05-08T15:25:07.821Z,69.61
2023-05-08T15:27:35.808Z,69.76
2023-05-08T15:30:03.847Z,69.76
2023-05-08T15:32:31.892Z,69.89
2023-05-08T15:35:01.236Z,69.89
2023-05-08T15:37:29.267Z,69.78
2023-05-08T15:39:57.243Z,70.00
2023-05-08T15:42:25.258Z,70.20
2023-05-08T15:44:57.528Z,69.94
2023-05-08T15:47:27.226Z,70.39
2023-05-08T15:49:55.341Z,70.71
2023-05-08T15:52:24.604Z,70.67
2023-05-08T15:54:52.899Z,70.43
2023-05-08T15:57:21.138Z,70.49
2023-05-08T15:59:49.052Z,70.94
2023-05-08T16:02:17.091Z,70.85
2023-05-08T16:04:45.039Z,71.03
2023-05-08T16:07:13.249Z,71.14
2023-05-08T16:09:43.108Z,71.27
2023-05-08T16:12:11.039Z,71.16
2023-05-08T16:14:39.432Z,71.28
2023-05-08T16:17:08.574Z,71.31
2023-05-08T16:19:38.769Z,71.38
2023-05-08T16:22:06.967Z,71.04
2023-05-08T16:24:34.868Z,71.20
2023-05-08T16:27:04.429Z,71.26
2023-05-08T16:29:32.297Z,71.24
2023-05-08T16:32:00.259Z,71.28
2023-05-08T16:34:28.317Z,71.25
2023-05-08T16:36:56.537Z,71.25
2023-05-08T16:39:24.479Z,71.18
2023-05-08T16:41:52.357Z,71.56
2023-05-08T16:44:21.806Z,71.34
2023-05-08T16:46:49.735Z,71.51
2023-05-08T16:49:17.935Z,71.38
2023-05-08T16:51:45.847Z,71.20
2023-05-08T16:54:13.770Z,71.28
2023-05-08T16:56:41.715Z,71.14
2023-05-08T16:59:09.757Z,71.14
2023-05-08T17:01:39.045Z,71.09
2023-05-08T17:04:07.250Z,70.94
2023-05-08T17:06:35.327Z,70.87
2023-05-08T17:09:03.320Z,70.94
2023-05-08T17:11:31.201Z,70.87
2023-05-08T17:13:59.267Z,70.86
2023-05-08T17:16:27.274Z,70.91
2023-05-08T17:18:56.860Z,71.28
2023-05-08T17:21:24.776Z,71.18
2023-05-08T17:23:52.817Z,71.12
2023-05-08T17:26:21.809Z,71.27
2023-05-08T17:28:49.746Z,71.05
2023-05-08T17:31:19.241Z,71.04
2023-05-08T17:33:47.369Z,70.64
2023-05-08T17:36:18.146Z,70.82
2023-05-08T17:38:47.370Z,70.95
2023-05-08T17:41:15.303Z,70.99
2023-05-08T17:43:43.374Z,71.15
2023-05-08T17:46:11.622Z,71.28
2023-05-08T17:48:39.776Z,71.24
2023-05-08T17:51:07.699Z,71.10
2023-05-08T17:53:37.132Z,71.26
2023-05-08T17:56:05.385Z,71.33
2023-05-08T17:58:33.447Z,71.17
2023-05-08T18:01:02.046Z,70.80
2023-05-08T18:03:30.438Z,71.09
2023-05-08T18:05:58.633Z,71.00
2023-05-08T18:08:26.605Z,70.40
2023-05-08T18:10:56.201Z,70.53
2023-05-08T18:13:24.516Z,70.86
2023-05-08T18:15:52.689Z,70.90
2023-05-08T18:18:20.689Z,70.86
2023-05-08T18:20:48.642Z,71.02
2023-05-08T18:23:16.634Z,70.79
2023-05-08T18:25:44.656Z,70.88
2023-05-08T18:28:14.028Z,70.67
2023-05-08T18:30:42.099Z,70.94
2023-05-08T18:33:10.116Z,70.95
2023-05-08T18:35:38.161Z,70.80
2023-05-08T18:38:06.062Z,70.79
2023-05-08T18:40:34.072Z,70.67
2023-05-08T18:43:02.028Z,70.77
2023-05-08T18:45:31.308Z,70.85
2023-05-08T18:47:59.333Z,70.69
2023-05-08T18:50:27.229Z,70.71
2023-05-08T18:52:55.186Z,70.78
2023-05-08T18:55:23.103Z,70.72
2023-05-08T18:57:51.118Z,70.59
2023-05-08T19:00:19.833Z,70.42
2023-05-08T19:02:49.205Z,70.42
2023-05-08T19:05:17.880Z,70.34
2023-05-08T19:07:46.340Z,70.48
2023-05-08T19:10:14.565Z,70.32
2023-05-08T19:12:42.976Z,70.18
2023-05-08T19:15:14.051Z,69.91
2023-05-08T19:17:42.383Z,69.73
2023-05-08T19:20:13.684Z,69.66
2023-05-08T19:22:41.809Z,69.73
2023-05-08T19:25:09.885Z,69.97
2023-05-08T19:27:37.866Z,70.19
2023-05-08T19:30:07.018Z,70.19
2023-05-08T19:32:35.108Z,70.08
2023-05-08T19:35:03.635Z,70.15
2023-05-08T19:37:33.099Z,70.07
2023-05-08T19:40:01.036Z,70.15
2023-05-08T19:42:28.925Z,70.35
2023-05-08T19:44:57.059Z,70.65
2023-05-08T19:47:24.966Z,70.39
2023-05-08T19:49:54.010Z,70.35
2023-05-08T19:52:21.942Z,70.10
2023-05-08T19:54:51.439Z,70.01
2023-05-08T19:57:19.295Z,69.92
2023-05-08T19:59:47.185Z,70.02
2023-05-08T20:02:15.275Z,70.00
2023-05-08T20:05:10.430Z,70.03
2023-05-08T20:07:31.243Z,69.96
2023-05-08T20:10:00.492Z,69.82
2023-05-08T20:12:28.560Z,69.94
2023-05-08T20:14:56.443Z,69.96
2023-05-08T20:17:24.564Z,70.09
2023-05-08T20:19:52.544Z,69.82
2023-05-08T20:22:20.601Z,69.86
2023-05-08T20:24:48.599Z,69.95
2023-05-08T20:27:17.845Z,69.90
2023-05-08T20:29:46.718Z,69.93
2023-05-08T20:32:16.427Z,69.87
2023-05-08T20:34:45.148Z,69.82
2023-05-08T20:37:13.049Z,69.78
2023-05-08T20:39:41.067Z,69.78
2023-05-08T20:42:08.965Z,69.57
2023-05-08T20:44:38.606Z,69.60
2023-05-08T20:47:06.520Z,69.78
2023-05-08T20:49:34.494Z,69.70
2023-05-08T20:52:02.391Z,69.64
2023-05-08T20:54:30.419Z,69.76
2023-05-08T20:56:58.444Z,69.87
2023-05-08T20:59:26.497Z,69.85
2023-05-08T21:01:55.802Z,69.96
2023-05-08T21:04:23.857Z,69.85
2023-05-08T21:06:52.405Z,69.85
2023-05-08T21:09:20.398Z,69.73
2023-05-08T21:11:48.509Z,69.76
2023-05-08T21:14:16.420Z,69.93
2023-05-08T21:16:44.640Z,69.88
2023-05-08T21:19:17.369Z,69.65
2023-05-08T21:21:45.499Z,69.88
2023-05-08T21:24:13.362Z,69.92
2023-05-08T21:26:41.311Z,69.76
2023-05-08T21:29:10.779Z,69.82
2023-05-08T21:31:39.116Z,69.89
2023-05-08T21:34:07.709Z,69.95
2023-05-08T21:36:37.059Z,70.24
2023-05-08T21:39:05.063Z,70.42
2023-05-08T21:41:33.132Z,70.22
2023-05-08T21:44:01.124Z,70.40
2023-05-08T21:46:29.205Z,70.49
2023-05-08T21:48:57.273Z,70.43
2023-05-08T21:51:25.177Z,70.68
2023-05-08T21:53:54.648Z,70.60
2023-05-08T21:56:22.757Z,70.83
2023-05-08T21:58:51.132Z,70.65
2023-05-08T22:01:19.227Z,70.47
2023-05-08T22:03:47.485Z,70.49
2023-05-08T22:06:15.608Z,70.59
2023-05-08T22:08:43.556Z,70.49
2023-05-08T22:11:12.851Z,70.59
2023-05-08T22:13:40.761Z,70.45
2023-05-08T22:16:09.243Z,70.63
2023-05-08T22:18:37.376Z,70.55
2023-05-08T22:21:05.316Z,70.68
2023-05-08T22:23:34.401Z,70.60
2023-05-08T22:26:02.922Z,70.47
2023-05-08T22:28:32.208Z,70.49
2023-05-08T22:31:00.486Z,70.63
2023-05-08T22:33:32.239Z,70.44
2023-05-08T22:36:00.252Z,70.42
2023-05-08T22:38:28.126Z,70.66
2023-05-08T22:40:57.429Z,70.77
2023-05-08T22:43:25.634Z,70.85
2023-05-08T22:45:54.909Z,71.19
2023-05-08T22:48:22.879Z,71.32
2023-05-08T22:50:50.905Z,71.20
2023-05-08T22:53:18.844Z,71.20
2023-05-08T22:55:46.820Z,71.40
2023-05-08T22:58:14.759Z,71.19
2023-05-08T23:00:42.700Z,71.00
2023-05-08T23:03:11.947Z,71.02
2023-05-08T23:05:39.899Z,70.94
2023-05-08T23:08:07.884Z,70.91
2023-05-08T23:10:35.829Z,70.70
2023-05-08T23:13:03.995Z,70.26
2023-05-08T23:15:31.887Z,70.67
2023-05-08T23:17:59.875Z,70.62
2023-05-08T23:20:29.165Z,70.71
2023-05-08T23:22:57.176Z,70.88
2023-05-08T23:25:25.418Z,70.70
2023-05-08T23:27:53.290Z,70.45
2023-05-08T23:30:21.524Z,70.75
2023-05-08T23:32:49.387Z,70.65
2023-05-08T23:35:17.523Z,70.58
2023-05-08T23:37:46.760Z,70.67
2023-05-08T23:40:14.898Z,71.00
2023-05-08T23:42:42.769Z,70.99
2023-05-08T23:45:12.161Z,71.00
2023-05-08T23:47:40.315Z,71.17
2023-05-08T23:50:08.985Z,71.06
2023-05-08T23:52:36.920Z,71.12
2023-05-08T23:55:07.307Z,71.07
2023-05-08T23:57:35.333Z,70.81
